sensor_id;sensor_type;location;lat;lon;timestamp;P1;durP1;ratioP1;P2;durP2;ratioP2
46899;SDS011;32647;49.382;7.078;2022-10-16T00:01:13;2.10;;;1.60;;
46899;SDS011;32647;49.382;7.078;2022-10-16T00:04:00;2.08;;;1.85;;
46899;SDS011;32647;49.382;7.078;2022-10-16T00:06:47;2.47;;;1.80;;
46899;SDS011;32647;49.382;7.078;2022-10-16T00:09:32;5.70;;;2.63;;
46899;SDS011;32647;49.382;7.078;2022-10-16T00:12:18;7.95;;;2.33;;
46899;SDS011;32647;49.382;7.078;2022-10-16T00:15:05;5.70;;;2.75;;
46899;SDS011;32647;49.382;7.078;2022-10-16T00:17:51;5.22;;;2.90;;
46899;SDS011;32647;49.382;7.078;2022-10-16T00:20:37;9.55;;;3.10;;
46899;SDS011;32647;49.382;7.078;2022-10-16T00:23:23;7.40;;;3.40;;
46899;SDS011;32647;49.382;7.078;2022-10-16T00:26:10;6.07;;;3.45;;
46899;SDS011;32647;49.382;7.078;2022-10-16T00:28:58;2.50;;;2.30;;
46899;SDS011;32647;49.382;7.078;2022-10-16T00:31:44;6.20;;;2.40;;
46899;SDS011;32647;49.382;7.078;2022-10-16T00:34:30;8.20;;;2.65;;
46899;SDS011;32647;49.382;7.078;2022-10-16T00:37:16;8.30;;;3.38;;
46899;SDS011;32647;49.382;7.078;2022-10-16T00:40:02;8.57;;;3.40;;
46899;SDS011;32647;49.382;7.078;2022-10-16T00:42:48;18.45;;;4.15;;
46899;SDS011;32647;49.382;7.078;2022-10-16T00:45:34;8.07;;;3.05;;
46899;SDS011;32647;49.382;7.078;2022-10-16T00:48:20;4.80;;;2.90;;
46899;SDS011;32647;49.382;7.078;2022-10-16T00:51:06;5.40;;;3.60;;
46899;SDS011;32647;49.382;7.078;2022-10-16T00:53:53;2.85;;;2.42;;
46899;SDS011;32647;49.382;7.078;2022-10-16T00:56:41;7.95;;;3.17;;
46899;SDS011;32647;49.382;7.078;2022-10-16T00:59:32;5.88;;;2.50;;
46899;SDS011;32647;49.382;7.078;2022-10-16T01:02:23;13.80;;;3.83;;
46899;SDS011;32647;49.382;7.078;2022-10-16T01:05:09;6.20;;;3.05;;
46899;SDS011;32647;49.382;7.078;2022-10-16T01:10:59;4.93;;;3.17;;
46899;SDS011;32647;49.382;7.078;2022-10-16T01:16:43;6.35;;;3.70;;
46899;SDS011;32647;49.382;7.078;2022-10-16T01:22:41;13.43;;;4.87;;
46899;SDS011;32647;49.382;7.078;2022-10-16T01:29:26;9.02;;;4.60;;
46899;SDS011;32647;49.382;7.078;2022-10-16T01:35:45;10.13;;;6.10;;
46899;SDS011;32647;49.382;7.078;2022-10-16T01:38:38;11.43;;;5.28;;
46899;SDS011;32647;49.382;7.078;2022-10-16T01:41:27;12.02;;;6.93;;
46899;SDS011;32647;49.382;7.078;2022-10-16T01:44:19;15.88;;;8.45;;
46899;SDS011;32647;49.382;7.078;2022-10-16T01:47:09;22.10;;;7.72;;
46899;SDS011;32647;49.382;7.078;2022-10-16T01:49:57;13.75;;;8.77;;
46899;SDS011;32647;49.382;7.078;2022-10-16T01:52:46;16.08;;;8.55;;
46899;SDS011;32647;49.382;7.078;2022-10-16T01:55:37;11.80;;;8.38;;
46899;SDS011;32647;49.382;7.078;2022-10-16T01:58:29;12.30;;;7.28;;
46899;SDS011;32647;49.382;7.078;2022-10-16T02:01:20;9.88;;;7.10;;
46899;SDS011;32647;49.382;7.078;2022-10-16T02:04:15;13.88;;;8.88;;
46899;SDS011;32647;49.382;7.078;2022-10-16T02:07:08;14.55;;;8.35;;
46899;SDS011;32647;49.382;7.078;2022-10-16T02:09:55;11.63;;;7.18;;
46899;SDS011;32647;49.382;7.078;2022-10-16T02:12:42;8.50;;;5.75;;
46899;SDS011;32647;49.382;7.078;2022-10-16T02:15:32;8.23;;;5.38;;
46899;SDS011;32647;49.382;7.078;2022-10-16T02:18:18;7.85;;;5.50;;
46899;SDS011;32647;49.382;7.078;2022-10-16T02:24:08;10.60;;;5.25;;
46899;SDS011;32647;49.382;7.078;2022-10-16T02:27:05;10.40;;;5.88;;
46899;SDS011;32647;49.382;7.078;2022-10-16T02:29:55;13.15;;;6.80;;
46899;SDS011;32647;49.382;7.078;2022-10-16T02:32:54;14.13;;;6.03;;
46899;SDS011;32647;49.382;7.078;2022-10-16T02:35:42;8.23;;;6.00;;
46899;SDS011;32647;49.382;7.078;2022-10-16T02:38:31;14.35;;;6.13;;
46899;SDS011;32647;49.382;7.078;2022-10-16T02:41:18;14.27;;;7.57;;
46899;SDS011;32647;49.382;7.078;2022-10-16T02:44:06;12.57;;;8.35;;
46899;SDS011;32647;49.382;7.078;2022-10-16T02:46:52;14.68;;;7.90;;
46899;SDS011;32647;49.382;7.078;2022-10-16T02:49:38;19.25;;;7.68;;
46899;SDS011;32647;49.382;7.078;2022-10-16T02:52:24;10.35;;;5.93;;
46899;SDS011;32647;49.382;7.078;2022-10-16T02:55:10;11.93;;;6.57;;
46899;SDS011;32647;49.382;7.078;2022-10-16T02:57:56;16.67;;;8.27;;
46899;SDS011;32647;49.382;7.078;2022-10-16T03:00:42;10.65;;;6.35;;
46899;SDS011;32647;49.382;7.078;2022-10-16T03:03:28;7.68;;;5.40;;
46899;SDS011;32647;49.382;7.078;2022-10-16T03:06:14;13.95;;;7.28;;
46899;SDS011;32647;49.382;7.078;2022-10-16T03:09:01;12.75;;;7.00;;
46899;SDS011;32647;49.382;7.078;2022-10-16T03:11:47;8.73;;;6.30;;
46899;SDS011;32647;49.382;7.078;2022-10-16T03:14:33;12.25;;;6.25;;
46899;SDS011;32647;49.382;7.078;2022-10-16T03:17:19;11.77;;;6.72;;
46899;SDS011;32647;49.382;7.078;2022-10-16T03:20:05;18.17;;;7.88;;
46899;SDS011;32647;49.382;7.078;2022-10-16T03:22:52;8.95;;;5.78;;
46899;SDS011;32647;49.382;7.078;2022-10-16T03:25:38;18.58;;;7.63;;
46899;SDS011;32647;49.382;7.078;2022-10-16T03:28:24;8.30;;;5.60;;
46899;SDS011;32647;49.382;7.078;2022-10-16T03:31:13;8.25;;;5.38;;
46899;SDS011;32647;49.382;7.078;2022-10-16T03:33:59;9.77;;;5.93;;
46899;SDS011;32647;49.382;7.078;2022-10-16T03:36:45;10.45;;;6.75;;
46899;SDS011;32647;49.382;7.078;2022-10-16T03:39:31;13.60;;;7.25;;
46899;SDS011;32647;49.382;7.078;2022-10-16T03:42:17;18.38;;;8.48;;
46899;SDS011;32647;49.382;7.078;2022-10-16T03:45:03;26.13;;;8.57;;
46899;SDS011;32647;49.382;7.078;2022-10-16T03:47:50;17.10;;;7.15;;
46899;SDS011;32647;49.382;7.078;2022-10-16T03:50:36;16.63;;;7.07;;
46899;SDS011;32647;49.382;7.078;2022-10-16T03:53:22;8.40;;;5.22;;
46899;SDS011;32647;49.382;7.078;2022-10-16T03:56:08;16.30;;;5.85;;
46899;SDS011;32647;49.382;7.078;2022-10-16T03:58:54;6.97;;;5.20;;
46899;SDS011;32647;49.382;7.078;2022-10-16T04:01:40;8.65;;;4.78;;
46899;SDS011;32647;49.382;7.078;2022-10-16T04:04:26;10.93;;;5.72;;
46899;SDS011;32647;49.382;7.078;2022-10-16T04:07:12;14.55;;;6.53;;
46899;SDS011;32647;49.382;7.078;2022-10-16T04:09:58;20.10;;;6.50;;
46899;SDS011;32647;49.382;7.078;2022-10-16T04:12:44;22.02;;;7.20;;
46899;SDS011;32647;49.382;7.078;2022-10-16T04:15:30;11.55;;;5.28;;
46899;SDS011;32647;49.382;7.078;2022-10-16T04:18:16;13.68;;;5.10;;
46899;SDS011;32647;49.382;7.078;2022-10-16T04:21:03;12.27;;;5.80;;
46899;SDS011;32647;49.382;7.078;2022-10-16T04:23:50;16.33;;;5.55;;
46899;SDS011;32647;49.382;7.078;2022-10-16T04:26:36;11.38;;;5.10;;
46899;SDS011;32647;49.382;7.078;2022-10-16T04:29:22;14.05;;;6.35;;
46899;SDS011;32647;49.382;7.078;2022-10-16T04:32:08;8.32;;;4.07;;
46899;SDS011;32647;49.382;7.078;2022-10-16T04:34:54;11.00;;;5.45;;
46899;SDS011;32647;49.382;7.078;2022-10-16T04:37:40;8.57;;;4.53;;
46899;SDS011;32647;49.382;7.078;2022-10-16T04:40:26;12.90;;;6.10;;
46899;SDS011;32647;49.382;7.078;2022-10-16T04:43:12;9.10;;;4.78;;
46899;SDS011;32647;49.382;7.078;2022-10-16T04:45:58;10.68;;;4.60;;
46899;SDS011;32647;49.382;7.078;2022-10-16T04:48:44;7.80;;;4.00;;
46899;SDS011;32647;49.382;7.078;2022-10-16T04:51:32;7.75;;;4.32;;
46899;SDS011;32647;49.382;7.078;2022-10-16T04:54:18;9.90;;;4.78;;
46899;SDS011;32647;49.382;7.078;2022-10-16T04:57:04;4.90;;;4.25;;
46899;SDS011;32647;49.382;7.078;2022-10-16T04:59:50;7.00;;;4.28;;
46899;SDS011;32647;49.382;7.078;2022-10-16T05:02:36;5.88;;;4.03;;
46899;SDS011;32647;49.382;7.078;2022-10-16T05:05:22;7.53;;;4.18;;
46899;SDS011;32647;49.382;7.078;2022-10-16T05:08:08;11.75;;;5.65;;
46899;SDS011;32647;49.382;7.078;2022-10-16T05:10:54;8.98;;;4.93;;
46899;SDS011;32647;49.382;7.078;2022-10-16T05:13:40;12.13;;;5.10;;
46899;SDS011;32647;49.382;7.078;2022-10-16T05:16:26;7.18;;;4.32;;
46899;SDS011;32647;49.382;7.078;2022-10-16T05:19:12;11.07;;;4.93;;
46899;SDS011;32647;49.382;7.078;2022-10-16T05:21:58;5.50;;;4.47;;
46899;SDS011;32647;49.382;7.078;2022-10-16T05:24:44;8.18;;;5.13;;
46899;SDS011;32647;49.382;7.078;2022-10-16T05:27:30;9.15;;;4.25;;
46899;SDS011;32647;49.382;7.078;2022-10-16T05:30:16;9.50;;;5.47;;
46899;SDS011;32647;49.382;7.078;2022-10-16T05:33:04;5.13;;;4.25;;
46899;SDS011;32647;49.382;7.078;2022-10-16T05:35:50;11.85;;;6.15;;
46899;SDS011;32647;49.382;7.078;2022-10-16T05:38:36;8.35;;;3.90;;
46899;SDS011;32647;49.382;7.078;2022-10-16T05:41:22;8.73;;;5.35;;
46899;SDS011;32647;49.382;7.078;2022-10-16T05:44:11;14.00;;;4.85;;
46899;SDS011;32647;49.382;7.078;2022-10-16T05:46:57;9.00;;;5.57;;
46899;SDS011;32647;49.382;7.078;2022-10-16T05:49:43;8.13;;;5.70;;
46899;SDS011;32647;49.382;7.078;2022-10-16T05:52:29;20.63;;;9.32;;
46899;SDS011;32647;49.382;7.078;2022-10-16T05:55:15;15.82;;;6.68;;
46899;SDS011;32647;49.382;7.078;2022-10-16T05:58:01;18.35;;;9.50;;
46899;SDS011;32647;49.382;7.078;2022-10-16T06:00:54;21.25;;;9.15;;
46899;SDS011;32647;49.382;7.078;2022-10-16T06:03:40;12.43;;;8.48;;
46899;SDS011;32647;49.382;7.078;2022-10-16T06:06:27;15.45;;;8.93;;
46899;SDS011;32647;49.382;7.078;2022-10-16T06:09:14;14.25;;;9.60;;
46899;SDS011;32647;49.382;7.078;2022-10-16T06:12:04;10.70;;;6.13;;
46899;SDS011;32647;49.382;7.078;2022-10-16T06:14:50;13.43;;;5.55;;
46899;SDS011;32647;49.382;7.078;2022-10-16T06:17:36;12.73;;;6.63;;
46899;SDS011;32647;49.382;7.078;2022-10-16T06:20:22;23.38;;;7.80;;
46899;SDS011;32647;49.382;7.078;2022-10-16T06:23:08;7.32;;;4.45;;
46899;SDS011;32647;49.382;7.078;2022-10-16T06:25:53;11.30;;;4.70;;
46899;SDS011;32647;49.382;7.078;2022-10-16T06:28:39;6.25;;;3.42;;
46899;SDS011;32647;49.382;7.078;2022-10-16T06:31:26;6.57;;;4.07;;
46899;SDS011;32647;49.382;7.078;2022-10-16T06:34:15;9.35;;;4.95;;
46899;SDS011;32647;49.382;7.078;2022-10-16T06:37:01;12.45;;;5.22;;
46899;SDS011;32647;49.382;7.078;2022-10-16T06:39:47;10.43;;;6.00;;
46899;SDS011;32647;49.382;7.078;2022-10-16T06:42:33;10.98;;;6.40;;
46899;SDS011;32647;49.382;7.078;2022-10-16T06:45:19;11.35;;;6.20;;
46899;SDS011;32647;49.382;7.078;2022-10-16T06:48:05;9.00;;;5.10;;
46899;SDS011;32647;49.382;7.078;2022-10-16T06:51:04;15.10;;;6.30;;
46899;SDS011;32647;49.382;7.078;2022-10-16T06:53:58;96.68;;;12.60;;
46899;SDS011;32647;49.382;7.078;2022-10-16T06:56:44;17.40;;;9.23;;
46899;SDS011;32647;49.382;7.078;2022-10-16T06:59:30;22.05;;;11.25;;
46899;SDS011;32647;49.382;7.078;2022-10-16T07:02:16;14.65;;;8.32;;
46899;SDS011;32647;49.382;7.078;2022-10-16T07:05:02;15.32;;;9.27;;
46899;SDS011;32647;49.382;7.078;2022-10-16T07:07:48;19.17;;;10.65;;
46899;SDS011;32647;49.382;7.078;2022-10-16T07:10:34;23.65;;;11.18;;
46899;SDS011;32647;49.382;7.078;2022-10-16T07:13:20;30.58;;;12.50;;
46899;SDS011;32647;49.382;7.078;2022-10-16T07:18:54;14.05;;;7.85;;
46899;SDS011;32647;49.382;7.078;2022-10-16T07:21:44;18.15;;;9.80;;
46899;SDS011;32647;49.382;7.078;2022-10-16T07:24:31;13.80;;;7.47;;
46899;SDS011;32647;49.382;7.078;2022-10-16T07:27:17;10.30;;;7.18;;
46899;SDS011;32647;49.382;7.078;2022-10-16T07:30:04;14.68;;;10.85;;
46899;SDS011;32647;49.382;7.078;2022-10-16T07:32:50;14.45;;;11.32;;
46899;SDS011;32647;49.382;7.078;2022-10-16T07:35:36;10.60;;;6.97;;
46899;SDS011;32647;49.382;7.078;2022-10-16T07:38:22;20.27;;;10.93;;
46899;SDS011;32647;49.382;7.078;2022-10-16T07:41:10;10.63;;;7.75;;
46899;SDS011;32647;49.382;7.078;2022-10-16T07:43:57;27.80;;;12.75;;
46899;SDS011;32647;49.382;7.078;2022-10-16T07:46:45;15.70;;;9.88;;
46899;SDS011;32647;49.382;7.078;2022-10-16T07:49:31;16.20;;;8.45;;
46899;SDS011;32647;49.382;7.078;2022-10-16T07:52:17;13.45;;;9.10;;
46899;SDS011;32647;49.382;7.078;2022-10-16T07:55:03;10.57;;;8.35;;
46899;SDS011;32647;49.382;7.078;2022-10-16T07:57:50;15.18;;;10.40;;
46899;SDS011;32647;49.382;7.078;2022-10-16T08:00:36;10.63;;;7.97;;
46899;SDS011;32647;49.382;7.078;2022-10-16T08:03:23;9.70;;;7.00;;
46899;SDS011;32647;49.382;7.078;2022-10-16T08:06:09;13.68;;;9.10;;
46899;SDS011;32647;49.382;7.078;2022-10-16T08:08:55;9.65;;;7.82;;
46899;SDS011;32647;49.382;7.078;2022-10-16T08:11:41;11.07;;;7.82;;
46899;SDS011;32647;49.382;7.078;2022-10-16T08:14:27;9.35;;;7.05;;
46899;SDS011;32647;49.382;7.078;2022-10-16T08:17:14;8.55;;;6.55;;
46899;SDS011;32647;49.382;7.078;2022-10-16T08:20:00;9.55;;;7.38;;
46899;SDS011;32647;49.382;7.078;2022-10-16T08:22:47;9.82;;;6.90;;
46899;SDS011;32647;49.382;7.078;2022-10-16T08:25:36;7.18;;;6.18;;
46899;SDS011;32647;49.382;7.078;2022-10-16T08:28:23;11.40;;;6.28;;
46899;SDS011;32647;49.382;7.078;2022-10-16T08:31:10;16.63;;;8.40;;
46899;SDS011;32647;49.382;7.078;2022-10-16T08:33:58;9.50;;;7.40;;
46899;SDS011;32647;49.382;7.078;2022-10-16T08:36:44;9.60;;;6.88;;
46899;SDS011;32647;49.382;7.078;2022-10-16T08:39:30;7.72;;;6.60;;
46899;SDS011;32647;49.382;7.078;2022-10-16T08:50:54;6.47;;;5.65;;
46899;SDS011;32647;49.382;7.078;2022-10-16T08:57:16;11.63;;;6.30;;
46899;SDS011;32647;49.382;7.078;2022-10-16T09:00:09;10.48;;;5.50;;
46899;SDS011;32647;49.382;7.078;2022-10-16T09:06:10;7.93;;;5.18;;
46899;SDS011;32647;49.382;7.078;2022-10-16T09:15:58;8.30;;;5.80;;
46899;SDS011;32647;49.382;7.078;2022-10-16T09:22:17;7.65;;;6.00;;
46899;SDS011;32647;49.382;7.078;2022-10-16T09:25:14;12.43;;;6.55;;
46899;SDS011;32647;49.382;7.078;2022-10-16T09:28:02;9.75;;;4.75;;
46899;SDS011;32647;49.382;7.078;2022-10-16T09:30:48;12.90;;;6.82;;
46899;SDS011;32647;49.382;7.078;2022-10-16T09:33:36;5.60;;;3.97;;
46899;SDS011;32647;49.382;7.078;2022-10-16T09:36:25;6.65;;;4.72;;
46899;SDS011;32647;49.382;7.078;2022-10-16T09:39:13;5.63;;;4.00;;
46899;SDS011;32647;49.382;7.078;2022-10-16T09:41:59;8.02;;;3.95;;
46899;SDS011;32647;49.382;7.078;2022-10-16T09:44:49;5.07;;;3.53;;
46899;SDS011;32647;49.382;7.078;2022-10-16T09:47:37;8.13;;;4.35;;
46899;SDS011;32647;49.382;7.078;2022-10-16T09:50:28;10.02;;;5.07;;
46899;SDS011;32647;49.382;7.078;2022-10-16T09:53:14;6.93;;;4.55;;
46899;SDS011;32647;49.382;7.078;2022-10-16T09:56:09;5.90;;;3.90;;
46899;SDS011;32647;49.382;7.078;2022-10-16T09:59:11;5.30;;;3.83;;
46899;SDS011;32647;49.382;7.078;2022-10-16T10:02:02;7.10;;;3.92;;
46899;SDS011;32647;49.382;7.078;2022-10-16T10:04:55;7.03;;;3.85;;
46899;SDS011;32647;49.382;7.078;2022-10-16T10:07:42;10.00;;;3.53;;
46899;SDS011;32647;49.382;7.078;2022-10-16T10:10:37;6.03;;;4.15;;
46899;SDS011;32647;49.382;7.078;2022-10-16T10:13:27;5.65;;;3.60;;
46899;SDS011;32647;49.382;7.078;2022-10-16T10:16:23;6.38;;;3.40;;
46899;SDS011;32647;49.382;7.078;2022-10-16T10:19:13;4.40;;;3.60;;
46899;SDS011;32647;49.382;7.078;2022-10-16T10:22:50;5.97;;;3.10;;
46899;SDS011;32647;49.382;7.078;2022-10-16T10:32:02;5.60;;;3.25;;
46899;SDS011;32647;49.382;7.078;2022-10-16T11:00:18;6.32;;;4.13;;
46899;SDS011;32647;49.382;7.078;2022-10-16T11:06:30;7.15;;;3.42;;
46899;SDS011;32647;49.382;7.078;2022-10-16T11:09:27;5.38;;;3.40;;
46899;SDS011;32647;49.382;7.078;2022-10-16T11:12:29;9.75;;;3.55;;
46899;SDS011;32647;49.382;7.078;2022-10-16T11:15:28;6.30;;;3.47;;
46899;SDS011;32647;49.382;7.078;2022-10-16T11:18:30;6.38;;;3.88;;
46899;SDS011;32647;49.382;7.078;2022-10-16T11:21:29;7.40;;;3.80;;
46899;SDS011;32647;49.382;7.078;2022-10-16T11:24:30;9.02;;;3.70;;
46899;SDS011;32647;49.382;7.078;2022-10-16T11:27:37;6.35;;;3.50;;
46899;SDS011;32647;49.382;7.078;2022-10-16T11:30:31;13.13;;;4.80;;
46899;SDS011;32647;49.382;7.078;2022-10-16T11:33:30;5.43;;;3.63;;
46899;SDS011;32647;49.382;7.078;2022-10-16T11:39:20;4.90;;;3.92;;
46899;SDS011;32647;49.382;7.078;2022-10-16T11:42:30;8.13;;;4.13;;
46899;SDS011;32647;49.382;7.078;2022-10-16T11:45:42;7.72;;;4.18;;
46899;SDS011;32647;49.382;7.078;2022-10-16T11:48:36;6.40;;;4.28;;
46899;SDS011;32647;49.382;7.078;2022-10-16T11:51:48;8.27;;;4.43;;
46899;SDS011;32647;49.382;7.078;2022-10-16T11:57:49;12.15;;;5.20;;
46899;SDS011;32647;49.382;7.078;2022-10-16T12:00:46;4.88;;;4.38;;
46899;SDS011;32647;49.382;7.078;2022-10-16T12:03:56;7.28;;;4.63;;
46899;SDS011;32647;49.382;7.078;2022-10-16T12:09:57;8.90;;;6.00;;
46899;SDS011;32647;49.382;7.078;2022-10-16T12:12:47;11.70;;;6.55;;
46899;SDS011;32647;49.382;7.078;2022-10-16T12:15:33;14.68;;;5.97;;
46899;SDS011;32647;49.382;7.078;2022-10-16T12:18:23;7.97;;;4.97;;
46899;SDS011;32647;49.382;7.078;2022-10-16T12:21:10;9.45;;;6.05;;
46899;SDS011;32647;49.382;7.078;2022-10-16T12:24:01;7.95;;;5.20;;
46899;SDS011;32647;49.382;7.078;2022-10-16T12:26:51;9.00;;;6.60;;
46899;SDS011;32647;49.382;7.078;2022-10-16T12:29:38;8.15;;;5.57;;
46899;SDS011;32647;49.382;7.078;2022-10-16T12:32:29;9.60;;;5.78;;
46899;SDS011;32647;49.382;7.078;2022-10-16T12:35:17;7.32;;;5.70;;
46899;SDS011;32647;49.382;7.078;2022-10-16T12:38:15;7.00;;;5.03;;
46899;SDS011;32647;49.382;7.078;2022-10-16T12:41:12;7.07;;;5.50;;
46899;SDS011;32647;49.382;7.078;2022-10-16T12:44:00;6.32;;;4.80;;
46899;SDS011;32647;49.382;7.078;2022-10-16T12:46:47;11.30;;;5.13;;
46899;SDS011;32647;49.382;7.078;2022-10-16T12:49:37;10.98;;;7.57;;
46899;SDS011;32647;49.382;7.078;2022-10-16T12:52:34;8.60;;;4.68;;
46899;SDS011;32647;49.382;7.078;2022-10-16T12:55:22;8.35;;;4.15;;
46899;SDS011;32647;49.382;7.078;2022-10-16T12:58:22;7.68;;;4.20;;
46899;SDS011;32647;49.382;7.078;2022-10-16T13:05:00;6.28;;;3.88;;
46899;SDS011;32647;49.382;7.078;2022-10-16T13:10:58;8.07;;;4.15;;
46899;SDS011;32647;49.382;7.078;2022-10-16T13:29:14;8.20;;;4.13;;
46899;SDS011;32647;49.382;7.078;2022-10-16T13:32:01;7.22;;;3.75;;
46899;SDS011;32647;49.382;7.078;2022-10-16T13:34:54;4.85;;;3.40;;
46899;SDS011;32647;49.382;7.078;2022-10-16T13:37:40;8.32;;;3.67;;
46899;SDS011;32647;49.382;7.078;2022-10-16T13:40:26;4.43;;;3.30;;
46899;SDS011;32647;49.382;7.078;2022-10-16T13:43:12;7.10;;;3.17;;
46899;SDS011;32647;49.382;7.078;2022-10-16T13:46:00;5.45;;;3.75;;
46899;SDS011;32647;49.382;7.078;2022-10-16T13:49:23;6.28;;;5.65;;
46899;SDS011;32647;49.382;7.078;2022-10-16T13:52:02;5.28;;;3.63;;
46899;SDS011;32647;49.382;7.078;2022-10-16T13:54:48;9.35;;;3.38;;
46899;SDS011;32647;49.382;7.078;2022-10-16T13:57:34;7.03;;;3.22;;
46899;SDS011;32647;49.382;7.078;2022-10-16T14:00:24;5.78;;;3.58;;
46899;SDS011;32647;49.382;7.078;2022-10-16T14:03:15;5.47;;;3.55;;
46899;SDS011;32647;49.382;7.078;2022-10-16T14:06:02;7.03;;;3.80;;
46899;SDS011;32647;49.382;7.078;2022-10-16T14:11:45;6.47;;;3.28;;
46899;SDS011;32647;49.382;7.078;2022-10-16T14:14:35;4.25;;;3.05;;
46899;SDS011;32647;49.382;7.078;2022-10-16T14:17:30;9.13;;;3.28;;
46899;SDS011;32647;49.382;7.078;2022-10-16T14:20:18;9.52;;;3.63;;
46899;SDS011;32647;49.382;7.078;2022-10-16T14:23:28;5.22;;;3.83;;
46899;SDS011;32647;49.382;7.078;2022-10-16T14:26:18;5.80;;;3.30;;
46899;SDS011;32647;49.382;7.078;2022-10-16T14:29:11;7.43;;;3.63;;
46899;SDS011;32647;49.382;7.078;2022-10-16T14:32:01;6.47;;;3.92;;
46899;SDS011;32647;49.382;7.078;2022-10-16T14:34:53;7.53;;;4.70;;
46899;SDS011;32647;49.382;7.078;2022-10-16T14:37:39;4.85;;;3.60;;
46899;SDS011;32647;49.382;7.078;2022-10-16T14:40:27;6.97;;;3.30;;
46899;SDS011;32647;49.382;7.078;2022-10-16T14:43:20;5.97;;;4.00;;
46899;SDS011;32647;49.382;7.078;2022-10-16T14:46:19;10.32;;;4.35;;
46899;SDS011;32647;49.382;7.078;2022-10-16T14:51:56;7.00;;;4.35;;
46899;SDS011;32647;49.382;7.078;2022-10-16T14:54:43;5.65;;;4.03;;
46899;SDS011;32647;49.382;7.078;2022-10-16T14:57:33;9.38;;;5.20;;
46899;SDS011;32647;49.382;7.078;2022-10-16T15:00:23;5.60;;;4.50;;
46899;SDS011;32647;49.382;7.078;2022-10-16T15:03:09;9.73;;;4.88;;
46899;SDS011;32647;49.382;7.078;2022-10-16T15:05:55;6.38;;;4.60;;
46899;SDS011;32647;49.382;7.078;2022-10-16T15:08:41;6.97;;;4.32;;
46899;SDS011;32647;49.382;7.078;2022-10-16T15:11:27;10.48;;;4.82;;
46899;SDS011;32647;49.382;7.078;2022-10-16T15:14:16;7.68;;;4.88;;
46899;SDS011;32647;49.382;7.078;2022-10-16T15:17:01;7.13;;;4.65;;
46899;SDS011;32647;49.382;7.078;2022-10-16T15:19:48;8.27;;;5.05;;
46899;SDS011;32647;49.382;7.078;2022-10-16T15:22:34;6.40;;;4.80;;
46899;SDS011;32647;49.382;7.078;2022-10-16T15:25:31;9.95;;;5.28;;
46899;SDS011;32647;49.382;7.078;2022-10-16T15:28:21;7.50;;;5.43;;
46899;SDS011;32647;49.382;7.078;2022-10-16T15:31:09;10.88;;;5.22;;
46899;SDS011;32647;49.382;7.078;2022-10-16T15:33:55;10.07;;;5.53;;
46899;SDS011;32647;49.382;7.078;2022-10-16T15:36:46;12.55;;;5.65;;
46899;SDS011;32647;49.382;7.078;2022-10-16T15:39:32;8.07;;;5.57;;
46899;SDS011;32647;49.382;7.078;2022-10-16T15:42:18;14.73;;;5.55;;
46899;SDS011;32647;49.382;7.078;2022-10-16T15:45:04;11.82;;;5.75;;
46899;SDS011;32647;49.382;7.078;2022-10-16T15:47:51;12.13;;;5.97;;
46899;SDS011;32647;49.382;7.078;2022-10-16T15:50:37;10.68;;;5.75;;
46899;SDS011;32647;49.382;7.078;2022-10-16T15:53:25;7.47;;;5.47;;
46899;SDS011;32647;49.382;7.078;2022-10-16T15:56:11;10.75;;;6.13;;
46899;SDS011;32647;49.382;7.078;2022-10-16T15:58:57;8.68;;;5.65;;
46899;SDS011;32647;49.382;7.078;2022-10-16T16:01:44;12.18;;;6.78;;
46899;SDS011;32647;49.382;7.078;2022-10-16T16:04:30;9.60;;;6.32;;
46899;SDS011;32647;49.382;7.078;2022-10-16T16:07:16;10.35;;;6.40;;
46899;SDS011;32647;49.382;7.078;2022-10-16T16:10:03;14.68;;;6.35;;
46899;SDS011;32647;49.382;7.078;2022-10-16T16:12:50;13.85;;;7.68;;
46899;SDS011;32647;49.382;7.078;2022-10-16T16:15:39;14.35;;;8.15;;
46899;SDS011;32647;49.382;7.078;2022-10-16T16:18:26;11.75;;;8.05;;
46899;SDS011;32647;49.382;7.078;2022-10-16T16:21:12;13.57;;;8.25;;
46899;SDS011;32647;49.382;7.078;2022-10-16T16:23:58;9.77;;;8.10;;
46899;SDS011;32647;49.382;7.078;2022-10-16T16:26:44;11.85;;;7.68;;
46899;SDS011;32647;49.382;7.078;2022-10-16T16:29:30;9.73;;;6.75;;
46899;SDS011;32647;49.382;7.078;2022-10-16T16:32:16;16.02;;;6.70;;
46899;SDS011;32647;49.382;7.078;2022-10-16T16:35:03;12.88;;;8.10;;
46899;SDS011;32647;49.382;7.078;2022-10-16T16:37:50;15.48;;;8.98;;
46899;SDS011;32647;49.382;7.078;2022-10-16T16:40:36;10.70;;;7.72;;
46899;SDS011;32647;49.382;7.078;2022-10-16T16:43:22;14.27;;;8.48;;
46899;SDS011;32647;49.382;7.078;2022-10-16T16:46:12;16.65;;;8.32;;
46899;SDS011;32647;49.382;7.078;2022-10-16T16:48:59;11.70;;;9.27;;
46899;SDS011;32647;49.382;7.078;2022-10-16T16:51:45;14.98;;;10.15;;
46899;SDS011;32647;49.382;7.078;2022-10-16T16:54:31;16.05;;;10.73;;
46899;SDS011;32647;49.382;7.078;2022-10-16T16:57:18;16.63;;;12.45;;
46899;SDS011;32647;49.382;7.078;2022-10-16T17:00:05;16.58;;;12.38;;
46899;SDS011;32647;49.382;7.078;2022-10-16T17:02:51;31.60;;;12.63;;
46899;SDS011;32647;49.382;7.078;2022-10-16T17:05:37;15.48;;;11.90;;
46899;SDS011;32647;49.382;7.078;2022-10-16T17:08:23;20.15;;;13.35;;
46899;SDS011;32647;49.382;7.078;2022-10-16T17:11:14;20.20;;;15.18;;
46899;SDS011;32647;49.382;7.078;2022-10-16T17:14:02;24.02;;;18.30;;
46899;SDS011;32647;49.382;7.078;2022-10-16T17:16:48;24.13;;;19.60;;
46899;SDS011;32647;49.382;7.078;2022-10-16T17:19:34;30.33;;;19.42;;
46899;SDS011;32647;49.382;7.078;2022-10-16T17:22:20;24.02;;;18.75;;
46899;SDS011;32647;49.382;7.078;2022-10-16T17:25:06;27.15;;;19.48;;
46899;SDS011;32647;49.382;7.078;2022-10-16T17:27:52;66.05;;;34.67;;
46899;SDS011;32647;49.382;7.078;2022-10-16T17:30:41;54.70;;;32.13;;
46899;SDS011;32647;49.382;7.078;2022-10-16T17:33:27;30.95;;;22.27;;
46899;SDS011;32647;49.382;7.078;2022-10-16T17:36:13;26.60;;;18.85;;
46899;SDS011;32647;49.382;7.078;2022-10-16T17:39:00;33.17;;;22.58;;
46899;SDS011;32647;49.382;7.078;2022-10-16T17:41:55;50.70;;;30.42;;
46899;SDS011;32647;49.382;7.078;2022-10-16T17:44:41;41.08;;;27.27;;
46899;SDS011;32647;49.382;7.078;2022-10-16T17:47:27;34.60;;;24.50;;
46899;SDS011;32647;49.382;7.078;2022-10-16T17:50:13;39.13;;;26.00;;
46899;SDS011;32647;49.382;7.078;2022-10-16T17:52:59;62.58;;;44.10;;
46899;SDS011;32647;49.382;7.078;2022-10-16T17:55:45;74.53;;;45.40;;
46899;SDS011;32647;49.382;7.078;2022-10-16T17:58:31;39.25;;;22.73;;
46899;SDS011;32647;49.382;7.078;2022-10-16T18:01:18;50.78;;;32.08;;
46899;SDS011;32647;49.382;7.078;2022-10-16T18:04:06;60.10;;;37.58;;
46899;SDS011;32647;49.382;7.078;2022-10-16T18:06:53;64.63;;;37.33;;
46899;SDS011;32647;49.382;7.078;2022-10-16T18:09:40;55.80;;;36.40;;
46899;SDS011;32647;49.382;7.078;2022-10-16T18:12:26;43.58;;;32.22;;
46899;SDS011;32647;49.382;7.078;2022-10-16T18:15:12;40.22;;;30.25;;
46899;SDS011;32647;49.382;7.078;2022-10-16T18:18:01;48.58;;;35.13;;
46899;SDS011;32647;49.382;7.078;2022-10-16T18:20:54;61.42;;;41.10;;
46899;SDS011;32647;49.382;7.078;2022-10-16T18:23:43;108.60;;;58.30;;
46899;SDS011;32647;49.382;7.078;2022-10-16T18:26:30;63.50;;;37.15;;
46899;SDS011;32647;49.382;7.078;2022-10-16T18:29:17;68.93;;;40.83;;
46899;SDS011;32647;49.382;7.078;2022-10-16T18:32:03;49.08;;;34.17;;
46899;SDS011;32647;49.382;7.078;2022-10-16T18:34:49;57.72;;;35.92;;
46899;SDS011;32647;49.382;7.078;2022-10-16T18:37:35;54.50;;;32.42;;
46899;SDS011;32647;49.382;7.078;2022-10-16T18:40:21;35.42;;;25.08;;
46899;SDS011;32647;49.382;7.078;2022-10-16T18:43:07;43.53;;;29.15;;
46899;SDS011;32647;49.382;7.078;2022-10-16T18:45:54;49.55;;;30.23;;